Time;durP1;ratioP1;P1;durP2;ratioP2;P2;SDS_P1;SDS_P2;PMS_P1;PMS_P2;Temp;Humidity;BMP_temperature;BMP_pressure;BME280_temperature;BME280_humidity;BME280_pressure;Samples;Min_cycle;Max_cycle;Signal;HPM_P1;HPM_P2
2023/07/31 00:01:46;;;;;;;4.20;2.10;;;;;;;18.01;80.67;99860.37;103678;280;38534;-73
2023/07/31 00:04:20;;;;;;;3.00;2.30;;;;;;;17.98;80.83;99859.88;103619;280;38294;-73
2023/07/31 00:06:55;;;;;;;7.70;2.50;;;;;;;17.93;80.79;99867.48;103638;280;38282;-73
2023/07/31 00:09:29;;;;;;;3.50;2.40;;;;;;;17.88;81.06;99872.14;103640;280;38656;-73
2023/07/31 00:12:03;;;;;;;3.70;2.30;;;;;;;17.82;81.25;99870.66;103657;280;38464;-73
2023/07/31 00:14:38;;;;;;;4.30;2.30;;;;;;;17.74;81.15;99870.89;103618;280;38309;-72
2023/07/31 00:17:12;;;;;;;3.40;2.40;;;;;;;17.68;81.38;99869.22;103646;280;38399;-75
2023/07/31 00:19:49;;;;;;;5.10;2.80;;;;;;;17.61;81.46;99870.09;103655;280;38355;-74
2023/07/31 00:22:23;;;;;;;3.00;2.70;;;;;;;17.57;81.72;99871.33;103601;280;38619;-76
2023/07/31 00:24:56;;;;;;;3.80;2.20;;;;;;;17.55;81.95;99873.73;103648;280;38255;-74
2023/07/31 00:27:30;;;;;;;4.40;2.10;;;;;;;17.52;82.24;99873.91;103641;280;38591;-75
2023/07/31 00:30:04;;;;;;;4.80;2.00;;;;;;;17.54;82.60;99877.33;103661;269;39404;-73
2023/07/31 00:32:38;;;;;;;2.50;1.90;;;;;;;17.55;82.82;99872.64;103510;280;38278;-71
2023/07/31 00:35:13;;;;;;;4.10;2.00;;;;;;;17.55;82.64;99877.42;103611;280;39464;-75
2023/07/31 00:37:46;;;;;;;2.60;1.90;;;;;;;17.56;82.80;99878.80;103679;280;39106;-75
2023/07/31 00:40:20;;;;;;;3.80;1.80;;;;;;;17.56;82.60;99876.33;103621;280;38549;-74
2023/07/31 00:42:54;;;;;;;4.30;1.80;;;;;;;17.55;82.37;99876.37;103627;280;38528;-75
2023/07/31 00:45:28;;;;;;;3.90;1.80;;;;;;;17.55;82.72;99872.68;103643;280;38288;-75
2023/07/31 00:48:02;;;;;;;2.90;1.70;;;;;;;17.54;82.71;99870.46;103607;280;38368;-76
2023/07/31 00:50:36;;;;;;;4.40;2.00;;;;;;;17.58;82.79;99871.95;103646;280;39427;-72
2023/07/31 00:53:11;;;;;;;3.20;1.90;;;;;;;17.57;82.41;99870.43;103593;280;38551;-73
2023/07/31 00:55:46;;;;;;;4.50;2.00;;;;;;;17.52;82.28;99867.58;103697;280;38969;-72
2023/07/31 00:58:20;;;;;;;4.10;2.10;;;;;;;17.48;82.26;99864.02;103624;280;39449;-73
2023/07/31 01:00:54;;;;;;;1.70;1.60;;;;;;;17.46;82.47;99860.27;103523;280;174962;-75
2023/07/31 01:03:28;;;;;;;2.00;1.80;;;;;;;17.42;82.29;99862.15;103496;280;175045;-73
2023/07/31 01:06:13;;;;;;;2.80;2.00;;;;;;;17.35;81.94;99863.55;103741;280;38442;-74
2023/07/31 01:08:53;;;;;;;2.00;1.70;;;;;;;17.29;82.23;99863.52;103692;280;38360;-76
2023/07/31 01:11:31;;;;;;;2.10;1.80;;;;;;;17.26;82.73;99864.92;103683;280;38487;-72
2023/07/31 01:14:06;;;;;;;3.90;2.10;;;;;;;17.24;82.85;99866.00;103704;279;39648;-73
2023/07/31 01:16:40;;;;;;;3.40;2.00;;;;;;;17.21;82.84;99868.66;103702;280;38297;-72
2023/07/31 01:19:14;;;;;;;2.80;1.60;;;;;;;17.17;83.19;99865.23;103666;280;40162;-74
2023/07/31 01:22:17;;;;;;;3.20;1.70;;;;;;;17.16;83.22;99863.39;103533;280;38279;-73
2023/07/31 01:25:05;;;;;;;1.80;1.60;;;;;;;17.13;83.46;99860.96;103583;280;38356;-72
2023/07/31 01:27:42;;;;;;;1.80;1.70;;;;;;;17.13;83.54;99864.84;103659;280;39739;-71
2023/07/31 01:30:18;;;;;;;1.90;1.60;;;;;;;17.14;83.72;99872.73;103744;280;39434;-74
2023/07/31 01:32:52;;;;;;;3.20;1.80;;;;;;;17.13;83.55;99876.14;103552;280;38342;-74
2023/07/31 01:35:26;;;;;;;2.30;2.00;;;;;;;17.12;83.76;99872.48;103712;279;38518;-73
2023/07/31 01:38:00;;;;;;;2.10;1.90;;;;;;;17.10;83.64;99876.16;103708;279;38273;-73
2023/07/31 01:40:34;;;;;;;3.00;1.80;;;;;;;17.08;83.71;99875.29;103695;280;39421;-72
2023/07/31 01:43:08;;;;;;;3.50;2.10;;;;;;;17.07;83.80;99874.13;103559;280;38518;-73
2023/07/31 01:45:44;;;;;;;4.80;2.50;;;;;;;17.06;83.90;99877.02;103732;280;38255;-73
2023/07/31 01:48:18;;;;;;;3.00;1.60;;;;;;;17.03;83.95;99872.78;103744;279;38499;-74
2023/07/31 01:50:52;;;;;;;2.00;1.70;;;;;;;17.02;84.15;99870.05;103766;279;39692;-72
2023/07/31 01:53:26;;;;;;;5.50;1.60;;;;;;;16.99;84.03;99872.52;103745;279;38243;-72
2023/07/31 01:56:00;;;;;;;4.40;1.90;;;;;;;16.98;84.34;99885.51;103788;279;39689;-72
2023/07/31 01:58:34;;;;;;;2.80;2.00;;;;;;;16.96;84.30;99889.15;103764;279;38974;-72
2023/07/31 02:01:08;;;;;;;2.60;1.70;;;;;;;16.97;84.51;99889.25;103765;279;38275;-74
2023/07/31 02:03:42;;;;;;;3.40;2.00;;;;;;;16.98;84.43;99880.41;103728;279;39133;-74
2023/07/31 02:06:16;;;;;;;3.40;1.90;;;;;;;16.95;84.06;99876.19;103774;279;38274;-71
2023/07/31 02:08:50;;;;;;;3.00;2.10;;;;;;;16.89;83.91;99879.63;103700;279;40022;-72
2023/07/31 02:11:24;;;;;;;3.20;2.20;;;;;;;16.85;84.37;99883.95;103772;279;38355;-73
2023/07/31 02:13:58;;;;;;;2.60;2.20;;;;;;;16.83;84.39;99882.89;103681;279;38562;-72
2023/07/31 02:16:32;;;;;;;2.40;1.80;;;;;;;16.80;84.35;99890.17;103585;279;172309;-72
2023/07/31 02:19:06;;;;;;;3.40;1.90;;;;;;;16.75;84.23;99895.63;103723;279;39977;-74
2023/07/31 02:21:40;;;;;;;3.80;2.20;;;;;;;16.68;84.40;99894.65;103695;279;38810;-75
2023/07/31 02:24:14;;;;;;;3.90;2.20;;;;;;;16.64;84.56;99896.52;103686;279;38278;-73
2023/07/31 02:26:48;;;;;;;3.20;2.20;;;;;;;16.62;84.97;99901.75;103732;279;40286;-72
2023/07/31 02:29:22;;;;;;;2.20;2.00;;;;;;;16.62;85.04;99899.31;103628;279;175042;-72
2023/07/31 02:31:56;;;;;;;3.40;2.20;;;;;;;16.59;85.11;99899.02;103723;279;38234;-73
2023/07/31 02:34:30;;;;;;;2.90;2.20;;;;;;;16.58;85.15;99897.67;103057;279;902239;-73
2023/07/31 02:37:04;;;;;;;3.40;2.50;;;;;;;16.58;85.70;99905.58;103722;279;38535;-71
2023/07/31 02:39:40;;;;;;;3.00;2.50;;;;;;;16.63;86.00;99918.27;103707;279;38684;-72
2023/07/31 02:42:15;;;;;;;3.00;2.50;;;;;;;16.67;86.17;99914.30;103701;279;38404;-75
2023/07/31 02:44:51;;;;;;;2.40;2.20;;;;;;;16.71;86.27;99910.68;103727;279;39406;-74
2023/07/31 02:47:25;;;;;;;4.10;2.60;;;;;;;16.74;86.25;99903.08;103969;277;174741;-76
2023/07/31 02:49:59;;;;;;;2.70;2.30;;;;;;;16.77;86.48;99904.27;104063;277;38626;-73
2023/07/31 02:52:33;;;;;;;4.40;2.60;;;;;;;16.82;86.54;99901.26;103840;277;39425;-71
2023/07/31 02:55:09;;;;;;;3.80;2.40;;;;;;;16.87;86.54;99897.57;104011;277;40061;-74
2023/07/31 02:57:43;;;;;;;3.10;2.60;;;;;;;16.92;86.38;99898.25;104019;277;38292;-74
2023/07/31 03:00:17;;;;;;;4.60;2.80;;;;;;;16.96;86.48;99902.41;104041;277;38467;-71
2023/07/31 03:02:51;;;;;;;5.10;2.80;;;;;;;16.98;86.25;99901.13;104015;277;38726;-71
2023/07/31 03:05:25;;;;;;;2.80;2.50;;;;;;;17.01;86.17;99902.57;104056;277;38262;-73
2023/07/31 03:07:59;;;;;;;3.30;2.60;;;;;;;17.02;86.26;99899.66;103847;277;38571;-72
2023/07/31 03:10:33;;;;;;;3.30;2.70;;;;;;;17.04;86.00;99898.65;104020;277;39399;-76
2023/07/31 03:13:07;;;;;;;3.90;2.60;;;;;;;17.04;85.97;99898.11;104054;265;38863;-75
2023/07/31 03:15:41;;;;;;;2.80;2.40;;;;;;;17.05;86.05;99902.96;104049;277;38639;-75
2023/07/31 03:18:15;;;;;;;3.20;2.80;;;;;;;17.09;86.15;99902.16;104006;277;39685;-76
2023/07/31 03:20:49;;;;;;;4.90;2.80;;;;;;;17.11;85.99;99905.23;104079;277;38285;-73
2023/07/31 03:23:23;;;;;;;3.10;2.80;;;;;;;17.13;86.01;99907.17;104054;277;38829;-71
2023/07/31 03:26:06;;;;;;;3.40;2.90;;;;;;;17.16;86.07;99916.60;104041;277;38482;-72
2023/07/31 03:28:40;;;;;;;3.40;2.80;;;;;;;17.20;85.93;99917.60;104052;277;38241;-72
2023/07/31 03:31:15;;;;;;;3.10;2.80;;;;;;;17.23;86.01;99921.91;104078;277;38249;-74
2023/07/31 03:33:49;;;;;;;3.30;2.70;;;;;;;17.24;85.72;99921.67;104020;277;38515;-75
2023/07/31 03:36:23;;;;;;;4.20;2.70;;;;;;;17.26;85.90;99924.17;103920;277;175066;-73
2023/07/31 03:38:57;;;;;;;2.90;2.30;;;;;;;17.29;86.01;99927.31;104007;277;39498;-75
2023/07/31 03:41:31;;;;;;;3.50;2.80;;;;;;;17.32;85.98;99926.92;104047;277;38973;-75
2023/07/31 03:44:05;;;;;;;3.00;2.50;;;;;;;17.35;85.94;99930.27;103783;279;39849;-73
2023/07/31 03:46:39;;;;;;;4.00;2.80;;;;;;;17.36;85.85;99932.27;103903;277;39678;-73
2023/07/31 03:49:13;;;;;;;3.80;2.50;;;;;;;17.37;85.92;99936.06;104007;277;38376;-74
2023/07/31 03:51:47;;;;;;;2.90;2.40;;;;;;;17.39;85.81;99937.33;104036;277;38302;-77
2023/07/31 03:54:21;;;;;;;2.80;2.30;;;;;;;17.41;85.55;99938.58;104007;277;38254;-74
2023/07/31 03:56:55;;;;;;;3.00;2.70;;;;;;;17.43;85.67;99938.09;104055;277;39488;-74
2023/07/31 03:59:29;;;;;;;4.40;2.50;;;;;;;17.45;85.60;99936.69;103994;277;39530;-72
2023/07/31 04:02:03;;;;;;;3.70;2.50;;;;;;;17.49;85.54;99944.55;104054;277;39658;-72
2023/07/31 04:04:38;;;;;;;4.00;2.70;;;;;;;17.52;85.54;99945.01;104043;276;38694;-71
2023/07/31 04:07:12;;;;;;;3.50;2.40;;;;;;;17.55;85.40;99947.61;104036;277;39794;-74
2023/07/31 04:09:46;;;;;;;5.30;2.40;;;;;;;17.60;85.62;99947.44;104050;277;38338;-74
2023/07/31 04:12:19;;;;;;;3.30;2.50;;;;;;;17.64;85.39;99949.98;104047;277;38566;-75
2023/07/31 04:14:53;;;;;;;2.80;2.40;;;;;;;17.67;85.27;99951.85;104102;274;38787;-74
2023/07/31 04:17:27;;;;;;;4.10;2.50;;;;;;;17.69;85.00;99958.09;104008;277;38386;-74
2023/07/31 04:20:02;;;;;;;6.00;2.60;;;;;;;17.71;84.92;99956.50;104074;277;38855;-74
2023/07/31 04:22:36;;;;;;;3.10;2.50;;;;;;;17.75;84.99;99960.96;103870;277;39775;-76
2023/07/31 04:25:11;;;;;;;3.30;2.70;;;;;;;17.78;84.54;99957.56;103866;277;38344;-74
2023/07/31 04:27:45;;;;;;;3.30;2.60;;;;;;;17.80;84.43;99959.42;104026;277;38800;-74
2023/07/31 04:30:18;;;;;;;4.60;2.40;;;;;;;17.83;84.52;99963.21;103404;277;900567;-73
2023/07/31 04:32:52;;;;;;;2.70;2.10;;;;;;;17.87;84.37;99966.48;104019;277;39051;-73
2023/07/31 04:35:26;;;;;;;4.50;2.60;;;;;;;17.89;84.23;99963.81;104048;275;39841;-73
2023/07/31 04:38:00;;;;;;;6.00;3.50;;;;;;;17.93;84.34;99967.58;104035;277;38301;-71
2023/07/31 04:40:35;;;;;;;3.30;2.40;;;;;;;17.99;84.18;99967.34;104028;277;39688;-71
2023/07/31 04:43:09;;;;;;;3.80;2.40;;;;;;;18.01;83.94;99965.02;103921;277;40646;-73
2023/07/31 04:45:46;;;;;;;2.50;2.10;;;;;;;18.06;83.96;99967.46;104050;277;40112;-74
2023/07/31 04:48:20;;;;;;;4.10;2.80;;;;;;;18.09;83.69;99968.66;104045;277;38463;-76
2023/07/31 04:50:54;;;;;;;5.40;2.50;;;;;;;18.13;83.44;99972.11;104035;276;38430;-74
2023/07/31 04:53:28;;;;;;;3.60;2.40;;;;;;;18.16;83.50;99970.77;104052;277;39405;-76
2023/07/31 04:56:01;;;;;;;4.30;2.50;;;;;;;18.19;83.00;99967.92;104033;277;38211;-73
2023/07/31 04:58:35;;;;;;;5.20;2.50;;;;;;;18.21;82.72;99964.25;104022;276;38347;-72
2023/07/31 05:01:09;;;;;;;3.60;2.40;;;;;;;18.22;82.54;99966.04;104055;277;38533;-76
2023/07/31 05:03:43;;;;;;;3.90;2.20;;;;;;;18.28;82.47;99967.73;104002;277;38801;-74
2023/07/31 05:06:17;;;;;;;4.30;2.50;;;;;;;18.31;82.41;99971.55;104098;277;39867;-75
2023/07/31 05:08:51;;;;;;;4.70;2.40;;;;;;;18.35;82.41;99977.63;104017;277;38035;-74
2023/07/31 05:11:25;;;;;;;3.60;2.40;;;;;;;18.39;82.27;99978.91;104072;277;38806;-71
2023/07/31 05:13:59;;;;;;;3.00;2.30;;;;;;;18.42;82.09;99982.43;103987;277;38284;-73
2023/07/31 05:16:33;;;;;;;3.00;2.60;;;;;;;18.44;81.94;99983.67;104022;277;39543;-72
2023/07/31 05:19:08;;;;;;;3.30;2.40;;;;;;;18.45;81.88;99978.96;104020;277;39387;-72
2023/07/31 05:21:42;;;;;;;2.70;2.20;;;;;;;18.47;81.71;99980.57;103892;277;41363;-73
2023/07/31 05:24:16;;;;;;;3.30;2.40;;;;;;;18.51;81.64;99987.19;104018;277;38427;-74
2023/07/31 05:26:50;;;;;;;5.40;2.80;;;;;;;18.54;81.77;99988.14;104036;277;39468;-76
2023/07/31 05:29:24;;;;;;;5.10;2.90;;;;;;;18.58;81.34;99985.80;104029;277;38515;-74
2023/07/31 05:31:57;;;;;;;3.00;2.70;;;;;;;18.61;80.91;99986.02;104041;277;38272;-75
2023/07/31 05:34:31;;;;;;;4.30;2.20;;;;;;;18.66;81.03;99993.80;104057;277;39412;-73
2023/07/31 05:37:06;;;;;;;3.90;2.40;;;;;;;18.71;80.61;99990.95;104106;277;38243;-72
2023/07/31 05:39:41;;;;;;;5.70;2.40;;;;;;;18.75;80.42;99995.58;104022;277;38913;-73
2023/07/31 05:42:15;;;;;;;6.20;2.40;;;;;;;18.81;80.26;99998.98;104047;276;38241;-72
2023/07/31 05:44:49;;;;;;;4.20;2.50;;;;;;;18.84;79.95;100002.68;104044;276;39443;-74
2023/07/31 05:47:23;;;;;;;6.00;3.80;;;;;;;18.84;79.56;100003.52;104035;277;38380;-72
2023/07/31 05:49:57;;;;;;;3.90;2.70;;;;;;;18.85;79.57;100005.75;104048;277;38231;-74
2023/07/31 05:52:31;;;;;;;5.50;2.60;;;;;;;18.86;79.20;100001.45;103985;277;38595;-76
2023/07/31 05:55:06;;;;;;;4.20;2.30;;;;;;;18.91;79.63;100008.98;104048;277;38546;-73
2023/07/31 05:57:39;;;;;;;4.00;2.40;;;;;;;18.97;79.18;100010.31;104018;277;39049;-73
2023/07/31 06:00:17;;;;;;;3.40;2.40;;;;;;;19.03;79.42;100012.77;104019;277;38623;-73
2023/07/31 06:02:51;;;;;;;3.20;2.30;;;;;;;19.10;79.57;100009.63;104039;277;39531;-74
2023/07/31 06:05:26;;;;;;;3.60;2.90;;;;;;;19.14;79.02;100014.23;104039;277;39670;-72
2023/07/31 06:08:00;;;;;;;3.90;2.10;;;;;;;19.19;78.63;100020.02;104016;277;38346;-72
2023/07/31 06:10:34;;;;;;;2.50;2.30;;;;;;;19.21;78.08;100021.84;104078;277;38355;-74
2023/07/31 06:13:09;;;;;;;8.10;2.40;;;;;;;19.23;78.23;100025.61;103859;277;39256;-73
2023/07/31 06:15:42;;;;;;;2.70;2.10;;;;;;;19.20;77.79;100030.59;104050;277;38230;-72
2023/07/31 06:18:17;;;;;;;4.80;2.20;;;;;;;19.17;77.58;100034.33;103917;277;38277;-73
2023/07/31 06:20:53;;;;;;;2.60;2.10;;;;;;;19.14;77.57;100031.39;104036;277;38882;-76
2023/07/31 06:23:27;;;;;;;3.00;2.20;;;;;;;19.13;77.60;100028.50;104020;277;40022;-77
2023/07/31 06:26:00;;;;;;;2.30;2.00;;;;;;;19.12;77.64;100028.20;104055;277;38628;-72
2023/07/31 06:28:35;;;;;;;4.10;2.20;;;;;;;19.13;77.51;100026.39;104028;277;38248;-75
2023/07/31 06:31:09;;;;;;;2.50;2.10;;;;;;;19.11;77.38;100025.67;104015;277;39717;-74
2023/07/31 06:33:43;;;;;;;3.70;2.50;;;;;;;19.09;77.41;100025.46;104052;277;39938;-74
2023/07/31 06:36:17;;;;;;;3.30;2.10;;;;;;;19.09;77.38;100027.91;103681;277;491737;-72
2023/07/31 06:38:51;;;;;;;2.70;2.20;;;;;;;19.09;77.14;100028.83;104061;277;38235;-72
2023/07/31 06:41:25;;;;;;;2.90;2.20;;;;;;;19.07;76.99;100027.34;104024;277;39900;-74
2023/07/31 06:43:59;;;;;;;4.60;2.50;;;;;;;19.08;77.10;100026.77;104045;276;38738;-74
2023/07/31 06:46:34;;;;;;;3.30;2.30;;;;;;;19.12;77.51;100025.39;103935;277;177274;-73
2023/07/31 06:49:08;;;;;;;3.90;2.50;;;;;;;19.22;77.70;100028.48;103378;277;901075;-72
2023/07/31 06:51:42;;;;;;;4.00;2.50;;;;;;;19.34;77.99;100031.77;104062;276;38689;-74
2023/07/31 06:54:16;;;;;;;3.40;2.10;;;;;;;19.52;78.30;100030.50;103917;277;38980;-75
2023/07/31 06:56:50;;;;;;;4.70;2.30;;;;;;;19.67;77.35;100026.49;104013;277;38344;-74
2023/07/31 06:59:24;;;;;;;4.50;2.10;;;;;;;19.78;76.68;100028.92;103978;277;39440;-74
2023/07/31 07:01:57;;;;;;;5.00;2.70;;;;;;;19.90;76.74;100025.62;104031;277;39413;-72
2023/07/31 07:04:32;;;;;;;8.30;3.60;;;;;;;20.07;76.49;100023.93;104054;277;38407;-74
2023/07/31 07:07:06;;;;;;;7.00;3.30;;;;;;;20.29;76.02;100027.86;103928;265;189325;-72
2023/07/31 07:09:42;;;;;;;5.80;2.80;;;;;;;20.60;75.59;100023.15;104051;277;39621;-74
2023/07/31 07:12:16;;;;;;;6.90;2.70;;;;;;;21.03;74.64;100020.87;104074;276;38604;-74
2023/07/31 07:14:52;;;;;;;3.90;2.80;;;;;;;21.55;73.88;100020.16;103884;277;38314;-74
2023/07/31 07:17:26;;;;;;;8.20;3.20;;;;;;;22.18;73.14;100021.59;104042;277;38895;-76
2023/07/31 07:20:00;;;;;;;3.50;2.20;;;;;;;22.83;71.31;100021.95;104064;277;38250;-74
2023/07/31 07:22:34;;;;;;;5.00;2.30;;;;;;;23.51;68.47;100024.34;104030;277;38408;-74
2023/07/31 07:25:09;;;;;;;2.90;2.20;;;;;;;24.01;66.10;100025.48;104021;277;38983;-72
2023/07/31 07:27:43;;;;;;;5.80;2.70;;;;;;;24.59;64.27;100022.13;104007;277;38325;-73
2023/07/31 07:30:17;;;;;;;4.30;2.60;;;;;;;24.98;62.17;100020.73;104056;277;39723;-74
2023/07/31 07:32:51;;;;;;;3.50;1.90;;;;;;;25.22;60.67;100016.88;103845;277;38562;-73
2023/07/31 07:35:25;;;;;;;8.30;2.30;;;;;;;25.40;59.50;100014.02;104012;277;38681;-75
2023/07/31 07:38:00;;;;;;;5.60;2.70;;;;;;;25.53;59.59;100007.28;104018;277;39442;-75
2023/07/31 07:40:34;;;;;;;2.40;2.00;;;;;;;26.09;59.42;100008.05;104061;277;39702;-76
2023/07/31 07:43:09;;;;;;;2.50;1.90;;;;;;;26.55;56.28;100005.00;104006;277;39742;-75
2023/07/31 07:45:42;;;;;;;3.50;2.00;;;;;;;26.77;55.25;100008.95;104031;277;38518;-72
2023/07/31 07:48:17;;;;;;;5.40;2.50;;;;;;;26.88;53.63;100013.92;104050;277;39913;-72
2023/07/31 07:50:51;;;;;;;5.60;2.00;;;;;;;26.80;53.03;100012.64;104015;277;38261;-75
2023/07/31 07:53:25;;;;;;;4.90;2.40;;;;;;;26.68;53.12;100015.71;104016;277;38264;-75
2023/07/31 07:55:59;;;;;;;2.80;1.90;;;;;;;26.63;53.11;100018.08;104039;277;38401;-74
2023/07/31 07:58:33;;;;;;;3.90;1.90;;;;;;;26.79;53.37;100016.13;103994;277;39520;-74
2023/07/31 08:01:08;;;;;;;3.20;1.80;;;;;;;27.09;53.32;100016.86;103936;277;187995;-72
2023/07/31 08:03:42;;;;;;;5.80;2.50;;;;;;;27.48;52.80;100015.92;103925;277;171738;-72
2023/07/31 08:06:16;;;;;;;5.00;2.40;;;;;;;28.00;51.64;100013.77;104042;273;38462;-72
2023/07/31 08:08:49;;;;;;;2.50;2.00;;;;;;;28.44;50.69;100013.85;103988;277;39910;-74
2023/07/31 08:11:24;;;;;;;4.20;1.80;;;;;;;28.95;49.33;100013.85;104035;277;38536;-73
2023/07/31 08:13:58;;;;;;;4.00;1.70;;;;;;;29.48;47.22;100006.13;104062;277;38240;-73
2023/07/31 08:16:32;;;;;;;4.90;2.20;;;;;;;29.95;46.06;100004.23;104047;277;38976;-74
2023/07/31 08:19:06;;;;;;;4.00;2.20;;;;;;;30.46;44.44;100003.54;103885;277;38374;-75
2023/07/31 08:21:40;;;;;;;2.50;1.90;;;;;;;30.90;42.56;100004.61;104044;277;39439;-75
2023/07/31 08:24:14;;;;;;;3.60;1.80;;;;;;;31.31;41.72;100006.56;103905;277;174249;-75
2023/07/31 08:26:49;;;;;;;3.70;1.90;;;;;;;31.80;40.64;100006.61;103948;277;38761;-77
2023/07/31 08:29:23;;;;;;;3.20;1.60;;;;;;;32.27;40.48;100008.77;103903;277;39405;-77
2023/07/31 08:31:57;;;;;;;4.20;1.90;;;;;;;32.57;38.68;100011.94;104043;277;38354;-77
2023/07/31 08:34:32;;;;;;;4.10;1.70;;;;;;;32.65;37.86;100005.91;104024;277;38243;-77
2023/07/31 08:37:06;;;;;;;3.30;1.60;;;;;;;32.71;37.68;100010.29;104046;276;38456;-74
2023/07/31 08:39:41;;;;;;;4.30;1.80;;;;;;;32.76;37.12;100009.39;104045;276;38241;-74
2023/07/31 08:42:14;;;;;;;6.90;1.80;;;;;;;32.95;37.00;100011.83;104052;277;39476;-74
2023/07/31 08:44:49;;;;;;;2.30;1.60;;;;;;;33.15;36.50;100017.20;104047;277;39649;-74
2023/07/31 08:47:23;;;;;;;7.50;1.80;;;;;;;33.39;35.77;100018.52;104086;277;39424;-72
2023/07/31 08:49:57;;;;;;;3.50;2.10;;;;;;;33.55;35.59;100016.84;103867;277;39008;-73
2023/07/31 08:52:31;;;;;;;3.50;1.70;;;;;;;33.77;34.63;100012.12;104007;277;38878;-73
2023/07/31 08:55:05;;;;;;;4.80;2.30;;;;;;;34.04;34.87;100009.21;104058;277;38240;-73
2023/07/31 08:57:40;;;;;;;3.20;1.80;;;;;;;34.36;34.84;100009.29;104037;277;38442;-74
2023/07/31 09:00:15;;;;;;;3.70;1.70;;;;;;;34.73;34.24;100006.57;104048;277;38602;-72
2023/07/31 09:02:52;;;;;;;2.90;1.60;;;;;;;34.87;32.96;100008.27;104034;277;39422;-72
2023/07/31 09:05:27;;;;;;;3.60;1.90;;;;;;;34.94;32.80;100010.85;104036;277;38342;-74
2023/07/31 09:08:01;;;;;;;3.20;1.60;;;;;;;34.85;31.92;100009.55;104029;277;38355;-74
2023/07/31 09:10:35;;;;;;;4.30;1.90;;;;;;;34.81;32.13;100006.92;103888;277;38290;-73
2023/07/31 09:13:09;;;;;;;2.90;1.70;;;;;;;34.52;31.50;100007.19;104043;277;38534;-73
2023/07/31 09:15:44;;;;;;;3.00;1.90;;;;;;;34.13;32.57;100012.77;104059;277;38285;-73
2023/07/31 09:18:20;;;;;;;2.40;1.70;;;;;;;34.05;32.43;100009.41;104022;277;39021;-73
2023/07/31 09:21:07;;;;;;;3.20;1.40;;;;;;;33.94;33.21;100012.65;104032;277;39797;-73
2023/07/31 09:23:48;;;;;;;4.10;2.00;;;;;;;33.78;33.37;100009.23;104031;277;39172;-73
2023/07/31 09:26:35;;;;;;;1.90;1.50;;;;;;;33.52;32.70;100007.58;104054;277;39149;-73
2023/07/31 09:29:19;;;;;;;3.20;1.70;;;;;;;33.04;32.49;100008.42;104019;277;39459;-74
2023/07/31 09:31:55;;;;;;;4.10;1.60;;;;;;;32.71;33.36;100004.70;104042;277;39386;-72
2023/07/31 09:34:40;;;;;;;3.90;1.60;;;;;;;32.30;33.29;100002.13;103841;266;38414;-72
2023/07/31 09:37:14;;;;;;;3.50;1.60;;;;;;;31.86;33.53;100004.00;104057;276;39954;-73
2023/07/31 09:39:54;;;;;;;2.10;1.50;;;;;;;31.55;34.54;100007.99;104049;277;38262;-75
2023/07/31 09:42:32;;;;;;;3.90;1.40;;;;;;;31.34;35.17;100012.12;104037;277;39685;-74
2023/07/31 09:45:19;;;;;;;2.10;1.30;;;;;;;30.98;34.71;100010.02;104065;277;38259;-75
2023/07/31 09:47:53;;;;;;;4.30;1.60;;;;;;;30.57;34.99;100012.10;104024;276;38866;-74
2023/07/31 09:50:30;;;;;;;4.10;1.40;;;;;;;30.37;35.72;100013.02;104068;277;39360;-75
2023/07/31 09:53:04;;;;;;;3.40;1.20;;;;;;;30.21;35.70;100016.71;104047;277;38619;-75
2023/07/31 09:55:38;;;;;;;3.10;1.10;;;;;;;29.98;35.48;100013.39;104017;277;38530;-76
2023/07/31 09:58:13;;;;;;;2.90;1.30;;;;;;;29.80;35.89;100015.00;104031;277;38775;-76
2023/07/31 10:00:51;;;;;;;3.20;1.20;;;;;;;29.73;35.86;100017.88;104016;277;38792;-76
2023/07/31 10:03:28;;;;;;;1.70;1.10;;;;;;;29.65;36.04;100017.03;104040;277;39413;-76
2023/07/31 10:06:05;;;;;;;2.00;1.20;;;;;;;29.63;36.15;100011.20;104066;277;38242;-73
2023/07/31 10:08:40;;;;;;;1.90;1.30;;;;;;;29.57;36.22;100014.89;104045;277;38637;-73
2023/07/31 10:11:14;;;;;;;4.00;1.30;;;;;;;29.55;36.44;100016.30;104053;277;38886;-74
2023/07/31 10:13:48;;;;;;;3.90;1.40;;;;;;;29.42;34.90;100007.99;104047;277;39418;-74
2023/07/31 10:16:22;;;;;;;2.00;1.20;;;;;;;29.27;35.73;100013.05;104051;277;38519;-75
2023/07/31 10:18:56;;;;;;;2.70;1.50;;;;;;;29.21;36.12;100009.23;103945;277;39613;-76
2023/07/31 10:21:30;;;;;;;2.50;1.20;;;;;;;29.17;35.09;100011.95;104129;277;38296;-76
2023/07/31 10:24:05;;;;;;;3.60;1.20;;;;;;;29.08;35.45;100014.48;104027;277;38361;-76
2023/07/31 10:26:40;;;;;;;4.10;1.20;;;;;;;29.03;35.59;100015.66;104084;277;38397;-75
2023/07/31 10:29:14;;;;;;;2.60;1.30;;;;;;;28.92;36.08;100010.89;103742;277;38705;-75
2023/07/31 10:31:48;;;;;;;1.80;1.10;;;;;;;28.84;35.55;100004.67;104048;277;38746;-74
2023/07/31 10:34:22;;;;;;;2.40;1.10;;;;;;;28.74;35.89;100005.59;104013;277;38358;-74
2023/07/31 10:37:14;;;;;;;2.90;1.50;;;;;;;28.76;35.82;100006.97;104078;277;38496;-77
2023/07/31 10:39:48;;;;;;;2.70;1.30;;;;;;;28.77;35.58;100008.70;104088;277;39679;-74
2023/07/31 10:42:22;;;;;;;1.50;1.10;;;;;;;28.72;36.33;100012.04;103972;277;38659;-73
2023/07/31 10:44:58;;;;;;;4.40;1.40;;;;;;;28.72;35.66;100008.77;104041;277;38337;-75
2023/07/31 10:47:32;;;;;;;3.90;1.60;;;;;;;28.71;36.01;100003.91;104031;277;39184;-75
2023/07/31 10:50:23;;;;;;;2.50;1.10;;;;;;;28.70;36.54;100006.47;104058;277;38976;-74
2023/07/31 10:52:58;;;;;;;2.50;1.00;;;;;;;28.66;35.97;100003.79;104048;276;39800;-74
2023/07/31 10:55:34;;;;;;;4.80;1.40;;;;;;;28.53;36.29;100001.36;104060;277;38934;-74
2023/07/31 10:58:12;;;;;;;1.70;1.20;;;;;;;28.45;36.37;100003.80;104079;277;38570;-74
2023/07/31 11:00:46;;;;;;;2.00;1.00;;;;;;;28.45;36.83;99999.59;104042;277;38388;-75
2023/07/31 11:03:22;;;;;;;3.60;1.10;;;;;;;28.51;37.15;100000.48;104002;277;39716;-76
2023/07/31 11:06:03;;;;;;;3.10;1.10;;;;;;;28.60;37.20;99999.85;104076;277;38343;-75
2023/07/31 11:08:43;;;;;;;2.50;1.00;;;;;;;28.59;36.72;99999.14;104009;277;38522;-75
2023/07/31 11:11:18;;;;;;;1.60;1.00;;;;;;;28.47;36.53;99998.70;104049;277;39820;-76
2023/07/31 11:13:53;;;;;;;3.90;1.20;;;;;;;28.39;36.85;99998.61;104003;277;39142;-76
2023/07/31 11:16:28;;;;;;;1.50;1.00;;;;;;;28.30;36.27;99999.64;103951;277;171759;-73
2023/07/31 11:19:02;;;;;;;2.70;1.00;;;;;;;28.18;36.13;100004.00;104012;277;38748;-73
2023/07/31 11:21:36;;;;;;;5.00;1.20;;;;;;;28.07;35.70;100001.91;104090;277;39573;-76
2023/07/31 11:24:12;;;;;;;3.40;1.10;;;;;;;27.96;36.04;100001.59;104043;277;38941;-76
2023/07/31 11:26:55;;;;;;;2.30;1.40;;;;;;;27.93;35.91;99999.34;104061;277;38301;-74
2023/07/31 11:29:31;;;;;;;2.10;1.10;;;;;;;27.83;36.25;99997.39;104012;277;38239;-73
2023/07/31 11:32:06;;;;;;;3.30;1.50;;;;;;;27.78;36.14;99999.77;104058;277;38840;-74
2023/07/31 11:34:57;;;;;;;2.00;1.00;;;;;;;27.75;36.82;99995.83;103927;277;38487;-73
2023/07/31 11:37:43;;;;;;;2.70;1.40;;;;;;;27.74;37.36;99994.29;104033;277;38656;-73
2023/07/31 11:40:17;;;;;;;3.50;1.20;;;;;;;27.76;37.21;99993.73;103954;277;38464;-76
2023/07/31 11:42:51;;;;;;;2.40;1.20;;;;;;;27.78;36.62;99995.48;103855;277;38217;-76
2023/07/31 11:45:27;;;;;;;2.40;1.10;;;;;;;27.78;37.14;99998.57;104086;277;38768;-75
2023/07/31 11:48:03;;;;;;;2.80;1.50;;;;;;;27.73;37.76;99992.71;104011;277;38489;-75
2023/07/31 11:50:37;;;;;;;2.90;1.30;;;;;;;27.68;37.54;99992.48;104025;276;39437;-76
2023/07/31 11:53:12;;;;;;;2.60;1.10;;;;;;;27.63;37.18;99992.59;104028;277;38262;-76
2023/07/31 11:55:46;;;;;;;1.80;1.30;;;;;;;27.60;37.71;99991.26;103860;277;174515;-76
2023/07/31 11:58:20;;;;;;;2.50;1.20;;;;;;;27.57;37.79;99984.99;104027;277;38961;-76
2023/07/31 12:00:54;;;;;;;2.70;1.20;;;;;;;27.53;37.77;99986.20;104116;277;38478;-74
2023/07/31 12:03:28;;;;;;;2.30;1.40;;;;;;;27.47;37.58;99987.20;104029;277;39609;-74
2023/07/31 12:06:02;;;;;;;2.80;0.90;;;;;;;27.42;37.85;99982.06;104037;277;39223;-73